Time;durP1;ratioP1;P1;durP2;ratioP2;P2;SDS_P1;SDS_P2;PMS_P1;PMS_P2;Temp;Humidity;BMP_temperature;BMP_pressure;BME280_temperature;BME280_humidity;BME280_pressure;Samples;Min_cycle;Max_cycle;Signal;HPM_P1;HPM_P2
2021/12/17 00:02:15;;;;;;;5.53;4.95;;;17.30;63.00;;;;;;5031022;28;20438;-25
2021/12/17 00:04:52;;;;;;;5.05;4.65;;;17.30;63.10;;;;;;5031580;28;20049;-23
2021/12/17 00:07:13;;;;;;;5.40;4.90;;;17.30;63.00;;;;;;5033051;28;20064;-29
2021/12/17 00:09:39;;;;;;;4.40;4.10;;;17.20;63.00;;;;;;5039846;28;20060;-25
2021/12/17 00:12:09;;;;;;;4.47;4.07;;;17.20;63.10;;;;;;5026741;28;20046;-27
2021/12/17 00:14:37;;;;;;;4.25;3.95;;;17.30;63.10;;;;;;5029758;28;20061;-26
2021/12/17 00:17:05;;;;;;;4.85;4.35;;;17.30;63.10;;;;;;5027824;28;20175;-29
2021/12/17 00:49:08;;;;;;;3.42;3.22;;;17.10;63.40;;;;;;5034584;28;20117;-23
2021/12/17 00:54:01;;;;;;;5.07;3.83;;;17.00;63.40;;;;;;5034793;28;20044;-27
2021/12/17 00:56:27;;;;;;;3.42;3.13;;;17.00;63.40;;;;;;5025754;28;20077;-26
2021/12/17 00:58:53;;;;;;;4.28;3.88;;;17.10;63.40;;;;;;5021586;28;20048;-24
2021/12/17 01:01:18;;;;;;;4.00;3.70;;;17.00;63.30;;;;;;5033455;28;20092;-29
2021/12/17 01:03:44;;;;;;;4.20;3.83;;;17.00;63.40;;;;;;5026548;28;20041;-25
2021/12/17 01:06:10;;;;;;;3.28;2.97;;;17.00;63.40;;;;;;5036817;28;20049;-27
2021/12/17 01:08:35;;;;;;;3.70;3.40;;;17.00;63.40;;;;;;5038064;28;20386;-27
2021/12/17 01:11:01;;;;;;;3.83;3.53;;;17.00;63.30;;;;;;5038605;28;20045;-21
2021/12/17 01:13:26;;;;;;;3.60;3.30;;;17.00;63.30;;;;;;5038147;28;20038;-25
2021/12/17 01:15:52;;;;;;;4.13;3.83;;;17.00;63.30;;;;;;5038606;28;20044;-30
2021/12/17 01:18:20;;;;;;;3.78;3.47;;;17.00;63.30;;;;;;5038549;28;20430;-23
2021/12/17 01:36:50;;;;;;;2.90;2.70;;;16.90;63.40;;;;;;5037885;28;20189;-26
2021/12/17 01:42:06;;;;;;;3.27;3.00;;;16.90;63.40;;;;;;5035815;28;20038;-27
2021/12/17 01:44:42;;;;;;;3.30;3.10;;;16.90;63.30;;;;;;5037219;28;20132;-25
2021/12/17 01:47:08;;;;;;;3.38;3.17;;;16.90;63.40;;;;;;5038171;28;20041;-26
2021/12/17 02:00:16;;;;;;;3.15;2.95;;;16.90;63.30;;;;;;5037389;28;20081;-23
2021/12/17 02:02:46;;;;;;;2.92;2.72;;;16.90;63.40;;;;;;5036979;28;20048;-23
2021/12/17 02:05:12;;;;;;;2.80;2.60;;;16.80;63.30;;;;;;5037254;28;20458;-23
2021/12/17 02:07:38;;;;;;;2.90;2.70;;;16.80;63.20;;;;;;5037155;28;20065;-22
2021/12/17 02:21:03;;;;;;;2.95;2.75;;;16.80;63.30;;;;;;5037073;28;20071;-24
2021/12/17 02:32:01;;;;;;;2.83;2.63;;;16.80;63.40;;;;;;5056712;28;20520;-28
2021/12/17 02:37:04;;;;;;;2.65;2.45;;;16.70;63.30;;;;;;5052329;28;20561;-24
2021/12/17 02:47:32;;;;;;;2.30;2.20;;;16.70;63.40;;;;;;5036695;28;20406;-23
2021/12/17 02:49:58;;;;;;;2.20;2.10;;;16.80;63.30;;;;;;5036408;28;20057;-26
2021/12/17 02:52:28;;;;;;;2.67;2.58;;;16.70;63.20;;;;;;5037143;28;20053;-27
2021/12/17 02:54:54;;;;;;;2.45;2.35;;;16.70;63.20;;;;;;5030550;28;20041;-26
2021/12/17 02:57:19;;;;;;;2.75;2.55;;;16.70;63.40;;;;;;5026698;28;20530;-25
2021/12/17 02:59:45;;;;;;;2.42;2.30;;;16.70;63.30;;;;;;5016272;28;20060;-32
2021/12/17 03:02:11;;;;;;;2.17;2.08;;;16.70;63.30;;;;;;5017768;28;20049;-25
2021/12/17 03:04:39;;;;;;;2.28;2.17;;;16.70;63.40;;;;;;5017824;28;20037;-24
2021/12/17 03:07:04;;;;;;;2.55;2.38;;;16.70;63.50;;;;;;5036806;28;20064;-24
2021/12/17 03:12:22;;;;;;;2.75;2.55;;;16.60;63.40;;;;;;5036625;28;20043;-27
2021/12/17 03:15:06;;;;;;;2.50;2.40;;;16.60;63.40;;;;;;5035803;28;20052;-24
2021/12/17 03:25:44;;;;;;;2.30;2.10;;;16.60;63.40;;;;;;5035607;28;20060;-21
2021/12/17 03:28:10;;;;;;;2.58;2.40;;;16.60;63.40;;;;;;5036181;28;20065;-24
2021/12/17 03:30:36;;;;;;;2.20;2.10;;;16.60;63.40;;;;;;5035264;28;20045;-26
2021/12/17 03:33:02;;;;;;;2.20;2.10;;;16.60;63.40;;;;;;5041625;28;20041;-30
2021/12/17 03:35:27;;;;;;;2.20;2.10;;;16.60;63.40;;;;;;5040082;28;20183;-25
2021/12/17 03:37:53;;;;;;;2.33;2.13;;;16.60;63.40;;;;;;5035634;28;20036;-27
2021/12/17 03:40:20;;;;;;;2.20;2.10;;;16.50;63.50;;;;;;5035639;28;20049;-23
2021/12/17 03:42:49;;;;;;;2.22;2.13;;;16.60;63.40;;;;;;5035450;28;20037;-24
2021/12/17 03:45:15;;;;;;;1.95;1.85;;;16.60;63.60;;;;;;5035797;28;20056;-27
2021/12/17 03:47:40;;;;;;;2.00;1.90;;;16.60;63.40;;;;;;5034272;28;20125;-23
2021/12/17 03:50:06;;;;;;;2.15;2.05;;;16.60;63.50;;;;;;5035439;28;20076;-26
2021/12/17 03:52:32;;;;;;;2.15;1.95;;;16.50;63.50;;;;;;5035779;28;20053;-24
2021/12/17 03:54:57;;;;;;;2.10;2.00;;;16.50;63.50;;;;;;5034926;28;20418;-25
2021/12/17 03:57:23;;;;;;;1.80;1.70;;;16.50;63.60;;;;;;5035797;28;20049;-25
2021/12/17 03:59:49;;;;;;;2.10;2.00;;;16.50;63.40;;;;;;5035070;28;20046;-25
2021/12/17 04:02:14;;;;;;;2.28;2.08;;;16.50;63.50;;;;;;5026493;28;20533;-27
2021/12/17 04:04:40;;;;;;;1.83;1.73;;;16.50;63.50;;;;;;5027419;28;20123;-22
2021/12/17 04:07:06;;;;;;;2.13;2.03;;;16.50;63.50;;;;;;5016822;28;20042;-24
2021/12/17 04:09:32;;;;;;;1.90;1.80;;;16.50;63.50;;;;;;5015645;28;20054;-27
2021/12/17 04:12:00;;;;;;;1.92;1.83;;;16.50;63.60;;;;;;5014896;28;20050;-24
2021/12/17 04:14:33;;;;;;;1.70;1.60;;;16.50;63.60;;;;;;5014154;28;20081;-25
2021/12/17 04:17:03;;;;;;;1.85;1.75;;;16.50;63.60;;;;;;5015139;28;20400;-27
2021/12/17 04:19:29;;;;;;;2.10;2.00;;;16.50;64.40;;;;;;5015295;28;20100;-25
2021/12/17 04:21:54;;;;;;;1.98;1.77;;;16.50;63.60;;;;;;5014609;28;20042;-25
2021/12/17 04:24:20;;;;;;;2.00;1.90;;;16.50;63.60;;;;;;5015256;28;20422;-22
2021/12/17 04:26:46;;;;;;;2.08;1.98;;;16.40;63.50;;;;;;5014783;28;20118;-25
2021/12/17 04:29:12;;;;;;;1.73;1.63;;;16.40;63.50;;;;;;5015429;28;20112;-25
2021/12/17 04:31:37;;;;;;;2.00;1.90;;;16.40;63.50;;;;;;5014032;28;20045;-28
2021/12/17 04:34:03;;;;;;;1.88;1.77;;;16.50;63.70;;;;;;5028617;28;20057;-26
2021/12/17 04:36:32;;;;;;;1.40;1.35;;;16.50;63.60;;;;;;5035213;28;20053;-26
2021/12/17 04:38:59;;;;;;;1.90;1.80;;;16.40;63.70;;;;;;5034449;28;20056;-23
2021/12/17 04:44:06;;;;;;;1.70;1.60;;;16.40;63.50;;;;;;5042430;28;20090;-30
2021/12/17 04:59:41;;;;;;;1.90;1.80;;;16.40;63.70;;;;;;5034302;28;20052;-23
2021/12/17 05:02:06;;;;;;;1.75;1.65;;;16.30;63.80;;;;;;5034576;28;20038;-27
2021/12/17 05:04:32;;;;;;;1.60;1.50;;;16.40;63.80;;;;;;5034331;28;20049;-23
2021/12/17 05:06:57;;;;;;;1.77;1.67;;;16.40;63.80;;;;;;5034238;28;20042;-32
2021/12/17 05:09:37;;;;;;;1.60;1.52;;;16.40;63.80;;;;;;5034708;28;20556;-24
2021/12/17 05:21:17;;;;;;;1.63;1.52;;;16.40;63.70;;;;;;5033813;28;20111;-23
2021/12/17 05:23:11;;;;;;;;;;;16.30;63.70;;;;;;5036742;28;20041;-25
2021/12/17 05:25:36;;;;;;;1.75;1.65;;;16.40;63.80;;;;;;5054015;28;19920;-21
2021/12/17 05:28:02;;;;;;;1.88;1.77;;;16.40;63.70;;;;;;5053895;28;20072;-26
2021/12/17 05:30:29;;;;;;;1.73;1.63;;;16.40;63.60;;;;;;5054274;28;20037;-27
2021/12/17 05:32:55;;;;;;;1.60;1.50;;;16.40;63.80;;;;;;5055799;28;20143;-30
2021/12/17 05:35:20;;;;;;;1.65;1.55;;;16.40;63.80;;;;;;5047192;28;20042;-26
2021/12/17 05:37:46;;;;;;;1.45;1.35;;;16.30;63.70;;;;;;5034131;28;20179;-24
2021/12/17 05:40:12;;;;;;;1.60;1.50;;;16.30;63.80;;;;;;5034245;28;20064;-25
2021/12/17 05:42:39;;;;;;;1.35;1.30;;;16.30;63.90;;;;;;5034249;28;20406;-24
2021/12/17 05:45:19;;;;;;;1.58;1.48;;;16.30;63.90;;;;;;5033723;28;20404;-23
2021/12/17 05:47:44;;;;;;;1.40;1.30;;;16.30;63.90;;;;;;5033956;28;20041;-29
2021/12/17 05:50:10;;;;;;;2.40;1.40;;;16.30;63.90;;;;;;5033958;28;20048;-24
2021/12/17 05:52:36;;;;;;;1.98;1.88;;;16.30;63.80;;;;;;5044778;28;20030;-24
2021/12/17 05:55:01;;;;;;;1.58;1.48;;;16.30;63.70;;;;;;5037216;28;20037;-25
2021/12/17 05:57:27;;;;;;;1.70;1.60;;;16.30;63.90;;;;;;5038151;28;20045;-23
2021/12/17 05:59:52;;;;;;;1.58;1.50;;;16.30;63.90;;;;;;5037329;28;20068;-21
2021/12/17 06:02:19;;;;;;;1.63;1.52;;;16.30;63.90;;;;;;5037892;28;20129;-26
2021/12/17 06:04:45;;;;;;;1.20;1.20;;;16.30;63.80;;;;;;5036703;28;20144;-27
2021/12/17 06:07:11;;;;;;;1.38;1.38;;;16.30;64.00;;;;;;5037694;28;20073;-23
2021/12/17 06:09:37;;;;;;;1.25;1.25;;;16.40;63.70;;;;;;5037485;28;20037;-25
2021/12/17 06:12:03;;;;;;;3.60;3.30;;;16.50;63.70;;;;;;5037183;28;20580;-25
2021/12/17 06:14:30;;;;;;;2.25;2.15;;;16.40;63.80;;;;;;5037186;28;20038;-26
2021/12/17 06:16:56;;;;;;;2.10;2.00;;;16.40;64.00;;;;;;5037111;28;20049;-23
2021/12/17 06:19:22;;;;;;;1.80;1.70;;;16.40;64.00;;;;;;4680297;28;10000606;-23
2021/12/17 06:21:48;;;;;;;2.00;1.90;;;16.50;63.80;;;;;;5028831;28;20072;-21
2021/12/17 06:24:13;;;;;;;1.50;1.40;;;16.50;63.60;;;;;;5039003;28;20068;-28
2021/12/17 06:26:39;;;;;;;2.00;1.90;;;16.60;63.50;;;;;;5033673;28;20056;-27
2021/12/17 06:29:04;;;;;;;1.50;1.50;;;16.60;63.70;;;;;;5033205;28;20045;-25
2021/12/17 06:31:30;;;;;;;1.73;1.63;;;16.60;63.80;;;;;;5046197;28;20041;-25
2021/12/17 06:33:56;;;;;;;3.47;2.10;;;16.60;63.80;;;;;;5036093;28;20513;-30
2021/12/17 06:36:21;;;;;;;1.80;1.70;;;16.60;63.70;;;;;;5030167;28;20050;-26
2021/12/17 06:38:47;;;;;;;2.20;2.10;;;16.60;63.70;;;;;;5033088;28;20433;-24
2021/12/17 06:41:12;;;;;;;2.30;2.20;;;16.60;63.60;;;;;;5033263;28;20045;-26
2021/12/17 06:43:41;;;;;;;2.22;2.10;;;16.60;63.60;;;;;;5032885;28;20037;-25
2021/12/17 06:46:22;;;;;;;2.10;2.00;;;16.60;63.50;;;;;;5032967;28;20045;-25
2021/12/17 06:48:55;;;;;;;2.55;2.35;;;16.60;63.50;;;;;;5032767;28;20062;-27
2021/12/17 06:59:47;;;;;;;2.30;2.20;;;16.60;63.70;;;;;;5036726;28;20071;-25
2021/12/17 07:10:35;;;;;;;2.67;2.53;;;16.60;63.40;;;;;;5055526;28;20079;-26
2021/12/17 07:34:07;;;;;;;4.38;4.07;;;16.50;63.50;;;;;;5034941;28;20045;-23
2021/12/17 07:36:54;;;;;;;4.28;3.97;;;16.60;63.80;;;;;;5025184;28;20047;-29
2021/12/17 07:39:20;;;;;;;4.95;4.47;;;16.60;63.60;;;;;;5051152;28;20383;-29
2021/12/17 07:41:45;;;;;;;4.43;4.03;;;16.50;63.60;;;;;;5054189;28;20051;-24
2021/12/17 07:44:13;;;;;;;4.93;4.50;;;16.50;63.60;;;;;;5050542;28;20045;-30
2021/12/17 07:46:38;;;;;;;4.63;4.32;;;16.50;63.70;;;;;;5053237;28;20037;-28
2021/12/17 07:49:04;;;;;;;5.38;4.95;;;16.50;63.80;;;;;;5053845;28;20075;-26
2021/12/17 07:51:29;;;;;;;5.28;4.75;;;16.50;63.90;;;;;;5054576;28;20067;-27
2021/12/17 07:53:56;;;;;;;5.82;5.15;;;16.50;63.90;;;;;;5051406;28;20067;-26
2021/12/17 07:56:26;;;;;;;6.07;5.38;;;16.50;63.90;;;;;;5053874;28;20037;-26
2021/12/17 07:58:51;;;;;;;5.63;5.10;;;16.50;63.90;;;;;;5054125;28;20068;-29
2021/12/17 08:01:17;;;;;;;5.82;5.15;;;16.50;64.00;;;;;;5054307;28;20052;-29
2021/12/17 08:03:43;;;;;;;5.88;5.28;;;16.50;63.90;;;;;;5054857;28;20094;-26
2021/12/17 08:06:08;;;;;;;6.05;5.45;;;16.50;63.80;;;;;;5054495;28;20119;-28
2021/12/17 08:08:34;;;;;;;5.32;4.93;;;16.50;63.70;;;;;;5055455;28;20494;-27
2021/12/17 08:11:00;;;;;;;5.05;4.65;;;16.50;63.80;;;;;;5053600;28;20040;-25
2021/12/17 08:13:29;;;;;;;5.50;5.07;;;16.50;63.80;;;;;;5050120;28;20045;-27
2021/12/17 08:24:39;;;;;;;5.72;5.18;;;16.50;63.70;;;;;;5035700;28;20056;-28
2021/12/17 08:31:27;;;;;;;7.20;6.45;;;16.50;63.60;;;;;;5035349;28;20549;-26
2021/12/17 08:33:53;;;;;;;6.80;6.10;;;16.60;63.40;;;;;;5047240;28;20037;-28
2021/12/17 08:36:19;;;;;;;10.55;5.93;;;16.60;63.30;;;;;;5055410;28;20033;-28
2021/12/17 08:38:45;;;;;;;9.20;5.38;;;16.60;63.30;;;;;;5055400;28;20132;-24
2021/12/17 08:41:11;;;;;;;6.45;5.72;;;16.50;63.50;;;;;;5054613;28;20375;-27
2021/12/17 08:43:37;;;;;;;5.97;5.40;;;16.50;63.60;;;;;;5055215;28;20494;-27
2021/12/17 08:46:03;;;;;;;6.75;5.68;;;16.50;63.50;;;;;;5054519;28;20045;-23
2021/12/17 08:48:28;;;;;;;6.85;5.80;;;16.50;63.60;;;;;;5055183;28;20033;-28
2021/12/17 08:50:54;;;;;;;6.28;5.53;;;16.50;63.60;;;;;;5054618;28;20572;-29
2021/12/17 08:53:19;;;;;;;6.32;5.22;;;16.50;63.60;;;;;;5055129;28;20033;-27
2021/12/17 08:55:46;;;;;;;6.82;6.22;;;16.50;63.50;;;;;;5039020;28;20120;-27
2021/12/17 08:58:13;;;;;;;6.38;5.75;;;16.60;63.70;;;;;;5034435;28;20124;-22
2021/12/17 09:00:42;;;;;;;7.00;6.28;;;16.60;63.00;;;;;;5035381;28;20041;-28
2021/12/17 09:03:09;;;;;;;6.90;5.68;;;16.60;63.50;;;;;;5050863;28;20040;-26
2021/12/17 09:05:39;;;;;;;7.25;5.20;;;16.60;63.30;;;;;;5074851;28;20039;-23
2021/12/17 09:08:05;;;;;;;6.75;5.88;;;16.60;62.90;;;;;;5059987;28;20037;-25
2021/12/17 09:10:31;;;;;;;6.57;5.47;;;16.60;62.80;;;;;;5054772;28;20033;-23
2021/12/17 09:12:57;;;;;;;6.85;5.38;;;16.60;63.00;;;;;;5057066;28;20099;-24
2021/12/17 09:15:22;;;;;;;6.55;5.95;;;16.60;63.00;;;;;;5060779;28;20051;-25
2021/12/17 09:17:48;;;;;;;6.55;5.95;;;16.60;63.00;;;;;;5057840;28;20033;-26
2021/12/17 09:20:14;;;;;;;5.95;5.22;;;16.70;63.00;;;;;;5039556;28;20049;-26
2021/12/17 09:22:39;;;;;;;5.68;5.18;;;16.70;62.90;;;;;;5035034;28;20061;-28
2021/12/17 09:25:05;;;;;;;5.78;5.32;;;16.70;62.80;;;;;;5033995;28;20037;-25
2021/12/17 09:27:32;;;;;;;5.57;5.07;;;16.70;62.80;;;;;;5038627;28;20042;-23
2021/12/17 09:29:57;;;;;;;5.45;4.95;;;16.70;62.70;;;;;;5058117;28;20103;-24
2021/12/17 09:32:23;;;;;;;5.45;4.95;;;16.80;62.70;;;;;;5058742;28;20041;-24
2021/12/17 09:34:48;;;;;;;5.10;4.60;;;16.80;62.50;;;;;;5078446;28;20113;-27
2021/12/17 09:37:14;;;;;;;5.60;5.13;;;16.80;62.70;;;;;;5078119;28;20037;-24
2021/12/17 09:39:40;;;;;;;5.70;5.20;;;16.80;62.50;;;;;;5078347;28;20043;-23
2021/12/17 09:42:06;;;;;;;5.18;4.68;;;16.80;62.70;;;;;;5077954;28;20123;-25
2021/12/17 09:44:32;;;;;;;5.90;5.05;;;16.80;62.60;;;;;;5060688;28;20505;-24
2021/12/17 09:46:59;;;;;;;6.05;5.38;;;16.90;62.40;;;;;;5077851;28;20105;-28
2021/12/17 09:49:24;;;;;;;7.72;6.97;;;16.90;62.50;;;;;;5060400;28;20059;-21
2021/12/17 09:51:50;;;;;;;9.02;7.55;;;17.00;62.10;;;;;;5060618;28;20052;-21
2021/12/17 09:54:16;;;;;;;8.85;7.50;;;17.00;62.10;;;;;;5077395;28;20047;-22
2021/12/17 09:56:42;;;;;;;8.90;7.93;;;17.00;62.10;;;;;;5078045;28;20057;-24
2021/12/17 09:59:07;;;;;;;9.02;7.68;;;17.00;62.10;;;;;;5049931;28;20501;-30
2021/12/17 10:01:38;;;;;;;9.38;8.23;;;17.10;62.10;;;;;;5038216;28;20064;-25
2021/12/17 10:04:11;;;;;;;8.52;7.63;;;17.10;62.20;;;;;;5037437;28;20057;-23
2021/12/17 10:06:37;;;;;;;9.43;8.52;;;17.10;62.20;;;;;;5038035;28;20050;-22
2021/12/17 10:09:02;;;;;;;9.45;8.45;;;17.10;62.20;;;;;;5037444;28;20121;-24
2021/12/17 10:11:28;;;;;;;10.40;8.45;;;17.10;62.10;;;;;;5037750;28;20073;-25
2021/12/17 10:13:54;;;;;;;8.65;7.80;;;17.10;62.20;;;;;;5020277;28;20034;-24
2021/12/17 10:16:20;;;;;;;9.02;8.13;;;17.10;62.30;;;;;;5065233;28;20132;-21
2021/12/17 10:18:47;;;;;;;9.05;8.05;;;17.20;62.30;;;;;;5077722;28;20040;-29
2021/12/17 10:21:21;;;;;;;8.75;7.85;;;17.20;62.30;;;;;;5077124;28;20072;-21
2021/12/17 10:23:47;;;;;;;8.68;7.78;;;17.20;62.30;;;;;;5077885;28;20146;-27
2021/12/17 10:26:15;;;;;;;7.78;7.07;;;17.20;62.30;;;;;;5076742;28;20146;-22
2021/12/17 10:28:55;;;;;;;8.85;7.70;;;17.20;62.40;;;;;;5077595;28;20032;-27
2021/12/17 10:31:21;;;;;;;8.80;7.90;;;17.20;62.30;;;;;;5056300;28;20042;-22
2021/12/17 10:33:51;;;;;;;9.70;7.00;;;17.20;62.40;;;;;;5065096;28;20085;-25
2021/12/17 10:36:16;;;;;;;7.47;6.75;;;17.20;62.10;;;;;;5076648;28;20117;-22
2021/12/17 10:38:45;;;;;;;6.82;6.22;;;17.20;62.20;;;;;;5076707;28;20072;-24
2021/12/17 10:41:14;;;;;;;7.82;7.13;;;17.30;62.30;;;;;;5076773;28;20048;-21
2021/12/17 10:43:46;;;;;;;9.15;7.40;;;17.30;62.10;;;;;;5059976;28;20526;-27
2021/12/17 10:46:26;;;;;;;7.55;6.85;;;17.30;62.10;;;;;;5076590;28;20139;-21
2021/12/17 10:48:56;;;;;;;7.97;7.18;;;17.30;62.10;;;;;;5077228;28;20071;-24
2021/12/17 10:51:43;;;;;;;7.40;6.72;;;17.30;62.30;;;;;;5076588;28;20109;-21
2021/12/17 10:54:19;;;;;;;6.90;6.38;;;17.30;62.40;;;;;;5076412;28;20043;-24
2021/12/17 10:56:50;;;;;;;8.20;7.40;;;17.30;62.50;;;;;;5077134;28;20139;-24
2021/12/17 10:59:23;;;;;;;7.35;6.65;;;17.30;62.40;;;;;;5076563;28;20037;-27
2021/12/17 11:01:51;;;;;;;7.40;6.70;;;17.30;62.50;;;;;;5077307;28;20079;-26
2021/12/17 11:04:26;;;;;;;7.55;6.90;;;17.30;62.30;;;;;;5076270;28;20139;-26
2021/12/17 11:06:59;;;;;;;7.55;6.70;;;17.30;62.40;;;;;;5076806;28;20505;-28
2021/12/17 11:09:47;;;;;;;9.68;7.53;;;17.40;62.20;;;;;;5075998;28;20098;-24
2021/12/17 11:12:17;;;;;;;7.05;6.45;;;17.50;62.10;;;;;;5077094;28;20070;-24
2021/12/17 11:14:43;;;;;;;7.07;6.38;;;17.50;62.10;;;;;;5075449;28;20064;-26
2021/12/17 11:17:13;;;;;;;17.90;7.57;;;17.40;62.20;;;;;;5056576;28;20044;-24
2021/12/17 11:19:39;;;;;;;7.13;6.53;;;17.40;62.30;;;;;;5054926;28;20136;-27
2021/12/17 11:22:05;;;;;;;7.72;7.03;;;17.40;62.40;;;;;;5056837;28;20398;-23
2021/12/17 11:24:31;;;;;;;7.70;7.00;;;17.40;62.40;;;;;;5054722;28;20057;-24
2021/12/17 11:26:57;;;;;;;8.85;6.55;;;17.40;62.30;;;;;;5055515;28;20048;-21
2021/12/17 11:29:23;;;;;;;7.13;6.53;;;17.50;62.30;;;;;;5049401;28;20046;-26
2021/12/17 11:31:49;;;;;;;7.07;6.53;;;17.50;62.40;;;;;;5056305;28;20041;-23
2021/12/17 11:34:16;;;;;;;6.60;6.10;;;17.50;62.30;;;;;;5071686;28;20045;-21
2021/12/17 11:36:42;;;;;;;6.60;6.10;;;17.50;62.40;;;;;;5058010;28;20068;-22
2021/12/17 11:39:21;;;;;;;6.18;5.75;;;17.50;62.30;;;;;;5076227;28;20051;-23
2021/12/17 11:42:28;;;;;;;6.95;6.45;;;17.50;62.30;;;;;;5075801;28;20127;-21
2021/12/17 11:45:23;;;;;;;6.45;5.95;;;17.50;62.30;;;;;;5075769;28;20044;-23
2021/12/17 11:47:41;;;;;;;5.82;5.35;;;17.50;62.30;;;;;;5060666;28;20052;-22
2021/12/17 11:50:08;;;;;;;5.80;5.30;;;17.50;62.30;;;;;;5057851;28;20057;-26
2021/12/17 11:52:43;;;;;;;7.00;6.28;;;17.50;62.20;;;;;;5075418;28;20037;-23
2021/12/17 11:55:20;;;;;;;5.88;5.38;;;17.50;62.20;;;;;;5075893;28;20072;-23
2021/12/17 11:57:47;;;;;;;6.32;5.85;;;17.50;62.20;;;;;;5075258;28;20040;-28
2021/12/17 12:00:14;;;;;;;5.80;5.40;;;17.50;62.20;;;;;;5056349;28;20056;-19
2021/12/17 12:02:46;;;;;;;5.22;4.90;;;17.50;62.10;;;;;;5041083;28;20037;-25
2021/12/17 12:05:14;;;;;;;5.88;5.38;;;17.60;62.30;;;;;;5035916;28;21137;-24
2021/12/17 12:07:40;;;;;;;5.43;5.03;;;17.60;62.30;;;;;;5023784;28;20523;-21
2021/12/17 12:10:14;;;;;;;5.35;4.95;;;17.60;62.20;;;;;;5055675;28;20041;-21
2021/12/17 12:12:46;;;;;;;5.43;5.03;;;17.60;62.20;;;;;;5055484;28;20494;-24
2021/12/17 12:15:20;;;;;;;5.07;4.78;;;17.60;62.10;;;;;;5060309;28;20040;-21
2021/12/17 12:17:58;;;;;;;4.78;4.47;;;17.60;62.10;;;;;;5074589;28;20041;-20
2021/12/17 12:20:46;;;;;;;4.88;4.47;;;17.60;62.00;;;;;;5074830;28;20428;-24
2021/12/17 12:23:22;;;;;;;4.97;4.60;;;17.60;62.00;;;;;;5075595;28;20044;-24
2021/12/17 12:26:11;;;;;;;5.18;4.65;;;17.70;62.10;;;;;;5074948;28;20044;-21
2021/12/17 12:28:48;;;;;;;5.00;4.60;;;17.70;61.90;;;;;;5074495;28;20044;-22
2021/12/17 12:31:13;;;;;;;4.95;4.43;;;17.70;62.30;;;;;;5062021;28;20140;-26
2021/12/17 12:34:01;;;;;;;4.93;4.55;;;17.70;62.20;;;;;;5056664;28;20068;-24
2021/12/17 12:36:54;;;;;;;4.22;3.95;;;17.70;61.90;;;;;;5069336;28;20051;-21
2021/12/17 12:39:42;;;;;;;4.43;4.07;;;17.70;62.20;;;;;;5038362;28;20076;-25
2021/12/17 12:42:10;;;;;;;4.65;4.35;;;17.70;62.10;;;;;;5034915;28;20048;-21
2021/12/17 12:44:42;;;;;;;4.35;4.05;;;17.70;62.20;;;;;;5034717;28;20482;-21
2021/12/17 12:47:12;;;;;;;4.38;4.07;;;17.70;62.20;;;;;;5035139;28;20095;-27
2021/12/17 12:49:45;;;;;;;5.22;3.92;;;17.70;62.30;;;;;;5033920;28;20495;-26
2021/12/17 12:52:41;;;;;;;4.85;3.80;;;17.70;62.30;;;;;;5034978;28;20045;-25
2021/12/17 12:55:41;;;;;;;4.15;3.90;;;17.80;62.40;;;;;;5027833;28;20033;-26
2021/12/17 12:58:17;;;;;;;4.75;4.22;;;17.80;62.40;;;;;;5031166;28;20083;-24
2021/12/17 13:00:50;;;;;;;3.92;3.60;;;17.80;62.30;;;;;;5034555;28;20090;-26
2021/12/17 13:03:17;;;;;;;3.88;3.55;;;17.80;62.20;;;;;;5034897;28;20065;-25
2021/12/17 13:05:44;;;;;;;4.25;3.95;;;17.80;62.20;;;;;;5034480;28;20049;-22
2021/12/17 13:08:12;;;;;;;3.80;3.50;;;17.80;62.20;;;;;;5035619;28;20041;-21
2021/12/17 13:10:44;;;;;;;3.70;3.40;;;17.80;62.20;;;;;;5053758;28;20083;-22
2021/12/17 13:16:14;;;;;;;4.20;3.80;;;17.80;62.20;;;;;;5047929;28;20055;-29
2021/12/17 13:24:05;;;;;;;5.40;3.50;;;17.90;62.60;;;;;;5039395;28;20033;-21
2021/12/17 13:26:31;;;;;;;5.32;3.70;;;17.80;62.70;;;;;;5049180;28;20033;-25
2021/12/17 13:29:04;;;;;;;4.00;3.38;;;17.80;63.20;;;;;;5054473;28;20049;-24
2021/12/17 13:31:36;;;;;;;3.85;3.50;;;17.80;63.90;;;;;;5054055;28;20060;-24
2021/12/17 13:34:08;;;;;;;4.20;3.90;;;17.80;63.60;;;;;;5054632;28;20072;-23
2021/12/17 13:36:34;;;;;;;13.57;3.97;;;17.80;63.80;;;;;;5053417;28;20051;-27
2021/12/17 13:38:59;;;;;;;10.73;3.88;;;17.80;63.80;;;;;;5054287;28;20048;-26
2021/12/17 13:41:35;;;;;;;5.50;3.45;;;17.90;64.10;;;;;;5053058;28;20045;-26
2021/12/17 13:44:02;;;;;;;9.27;3.28;;;17.80;64.00;;;;;;5054626;28;20098;-24
2021/12/17 13:46:28;;;;;;;5.38;3.30;;;17.80;64.50;;;;;;5053504;28;20049;-23
2021/12/17 13:48:53;;;;;;;4.83;3.03;;;17.80;64.50;;;;;;4701995;28;10000647;-27
2021/12/17 13:51:19;;;;;;;6.32;3.20;;;17.80;63.80;;;;;;5049561;28;20767;-27
2021/12/17 13:53:45;;;;;;;3.92;3.65;;;17.80;63.90;;;;;;5020020;28;20049;-22
2021/12/17 13:56:15;;;;;;;5.97;3.28;;;17.80;64.20;;;;;;5049054;28;20040;-25
2021/12/17 13:58:40;;;;;;;4.50;3.05;;;17.80;64.00;;;;;;5050998;28;20045;-21
2021/12/17 14:01:06;;;;;;;5.18;3.00;;;17.80;63.70;;;;;;5050411;28;20549;-29
2021/12/17 14:03:34;;;;;;;3.55;3.10;;;17.80;63.70;;;;;;5049733;28;20045;-23
2021/12/17 14:06:16;;;;;;;4.43;3.13;;;17.80;63.70;;;;;;5051141;28;20056;-30
2021/12/17 14:08:42;;;;;;;3.67;2.70;;;17.80;63.70;;;;;;5051892;28;20144;-23
2021/12/17 14:11:29;;;;;;;2.60;2.40;;;17.80;63.60;;;;;;5059517;28;20135;-22
2021/12/17 14:13:54;;;;;;;3.35;3.03;;;17.80;63.40;;;;;;5055076;28;20102;-22
2021/12/17 14:16:30;;;;;;;3.13;2.85;;;17.70;63.60;;;;;;5059936;28;20045;-23
2021/12/17 14:19:00;;;;;;;3.20;2.85;;;17.70;63.30;;;;;;5055214;28;20074;-21
2021/12/17 14:21:27;;;;;;;4.68;3.03;;;17.70;63.40;;;;;;5053732;28;20123;-24
2021/12/17 14:23:53;;;;;;;4.93;2.55;;;17.70;63.50;;;;;;5054635;28;20053;-27
2021/12/17 14:26:18;;;;;;;3.35;3.05;;;17.70;63.50;;;;;;5054524;28;20105;-24
2021/12/17 14:28:44;;;;;;;3.83;3.00;;;17.70;63.40;;;;;;5036861;28;20049;-29
2021/12/17 14:31:15;;;;;;;4.07;2.92;;;17.70;63.50;;;;;;5056669;28;20521;-27
2021/12/17 14:33:51;;;;;;;2.70;2.50;;;17.70;63.40;;;;;;5056907;28;20040;-24
2021/12/17 14:36:17;;;;;;;3.50;2.67;;;17.70;63.40;;;;;;5056070;28;20051;-27
2021/12/17 14:38:49;;;;;;;2.80;2.60;;;17.60;63.80;;;;;;5054595;28;20053;-21
2021/12/17 14:41:22;;;;;;;3.55;2.70;;;17.60;63.90;;;;;;5053117;28;20039;-24
2021/12/17 14:43:58;;;;;;;3.10;2.72;;;17.60;63.60;;;;;;5054466;28;20049;-24
2021/12/17 14:46:25;;;;;;;3.10;2.40;;;17.60;63.60;;;;;;5054013;28;20051;-26
2021/12/17 15:00:23;;;;;;;3.22;3.00;;;17.50;63.60;;;;;;5054248;28;20136;-25
2021/12/17 15:05:20;;;;;;;10.35;7.97;;;17.50;63.50;;;;;;5056366;28;20577;-26
2021/12/17 15:07:46;;;;;;;14.27;10.85;;;17.50;63.50;;;;;;5055918;28;20041;-28
2021/12/17 15:10:13;;;;;;;11.68;9.48;;;17.50;63.50;;;;;;5055176;28;20517;-25
2021/12/17 15:12:38;;;;;;;11.63;8.15;;;17.50;63.60;;;;;;5051956;28;20059;-24
2021/12/17 15:15:19;;;;;;;11.25;8.25;;;17.60;63.60;;;;;;5055022;28;20470;-21
2021/12/17 15:17:45;;;;;;;8.82;7.55;;;17.60;63.60;;;;;;5034662;28;20040;-21
2021/12/17 15:20:11;;;;;;;8.82;6.80;;;17.50;63.70;;;;;;5052807;28;20056;-22
2021/12/17 15:22:37;;;;;;;7.20;6.50;;;17.50;63.70;;;;;;5054509;28;20063;-24
2021/12/17 15:25:04;;;;;;;7.38;5.82;;;17.50;63.80;;;;;;5038780;28;20057;-21
2021/12/17 15:27:33;;;;;;;7.63;6.68;;;17.50;63.70;;;;;;5037047;28;20048;-26
2021/12/17 15:30:03;;;;;;;7.38;6.70;;;17.50;63.60;;;;;;5055876;28;20041;-24
2021/12/17 15:32:28;;;;;;;6.38;5.88;;;17.50;63.70;;;;;;5053930;28;20036;-26
2021/12/17 15:34:54;;;;;;;8.93;6.03;;;17.50;63.60;;;;;;5058740;28;20395;-24
2021/12/17 15:37:20;;;;;;;7.10;6.40;;;17.50;63.70;;;;;;5039766;28;20034;-22
2021/12/17 15:39:45;;;;;;;7.43;6.72;;;17.50;63.80;;;;;;5035289;28;20049;-25
2021/12/17 15:42:11;;;;;;;7.68;6.82;;;17.50;64.50;;;;;;5055008;28;20037;-28
2021/12/17 15:44:37;;;;;;;6.97;6.30;;;17.50;63.80;;;;;;5055192;28;20045;-23
2021/12/17 15:47:05;;;;;;;7.10;6.50;;;17.40;63.80;;;;;;5045924;28;20148;-30
2021/12/17 15:49:31;;;;;;;10.70;8.32;;;17.50;63.90;;;;;;5054437;28;20064;-24
2021/12/17 15:51:56;;;;;;;7.38;6.47;;;17.50;64.40;;;;;;5050089;28;20045;-26
2021/12/17 15:54:22;;;;;;;7.43;6.15;;;17.50;64.50;;;;;;5043559;28;20287;-24
2021/12/17 15:56:49;;;;;;;10.32;6.53;;;17.40;63.90;;;;;;5053262;28;20690;-21
2021/12/17 15:59:15;;;;;;;7.78;6.40;;;17.50;64.00;;;;;;5046547;28;20406;-24
2021/12/17 16:01:40;;;;;;;8.45;5.65;;;17.40;64.00;;;;;;5054031;28;20132;-25
2021/12/17 16:04:06;;;;;;;9.13;6.05;;;17.40;64.90;;;;;;5055711;28;20509;-26
2021/12/17 16:06:31;;;;;;;6.10;5.50;;;17.40;64.70;;;;;;5054112;28;20049;-24
2021/12/17 16:09:00;;;;;;;9.13;6.75;;;17.40;65.00;;;;;;5055585;28;20051;-24
2021/12/17 16:11:48;;;;;;;6.88;6.13;;;17.40;64.60;;;;;;5042124;28;20041;-21
2021/12/17 16:22:05;;;;;;;12.25;7.10;;;17.30;64.20;;;;;;5055581;28;20494;-25